Current | Forecast
Updated: 10:00 AM +07 on January 20, 2018
Observed at Abakan, Russia
Temperature -18°F
Windchill -38°F
Humidity 63%
Dew Point -27°F
Wind North at 9 mph
Pressure 30.74 in (Steady)
Conditions Clear
Visibility -
UV N/A
Clouds
Yesterday's Maximum 7°F
Yesterday's Minimum -6°F approx.
Yesterday's Heating Degree Days 65 approx.
Sunrise8:59 AM +07
Sunset5:11 PM +07
Moon Rise10:27 AM +07
Moon Set8:41 PM +07
Moon PhaseMoon Phase
Waxing Crescent
Raw METARMETAR UNAA 200300Z 36004MPS CAVOK M28/M33 Q1041 R02/020245 NOSIG RMK QFE758


Monday
. High: 51° F.
Tuesday
. High: 51° F.
Wednesday
. High: 50° F.
Thursday
. High: 50° F.
Friday
. High: 53° F.
Saturday
. High: 59° F.
Sunday
. High: 64° F.
Monday
. High: 69° F.

Units: English | Metric

Find the Weather for any City, State or Zipcode, or Country:

U.S. State List | Severe Weather | Tropical Storms | Ski Conditions
United States | Canada | Central America | South America | Asia | Europe | Australia | Africa | Islands

Weather Underground

© Copyright 2018
The Weather Company, LLC